createdAt,value
2019-03-27T21:53:21.219Z,32.70
2019-03-27T21:55:50.025Z,32.50
2019-03-27T21:58:19.061Z,32.40
2019-03-27T22:00:47.612Z,32.10
2019-03-27T22:03:16.105Z,32.70
2019-03-27T22:05:45.259Z,32.00
2019-03-27T22:10:25.743Z,32.40
2019-03-27T22:12:52.415Z,31.80
2019-03-27T22:15:18.955Z,31.60
2019-03-27T22:17:48.562Z,31.40
2019-03-27T22:20:15.094Z,31.50
2019-03-27T22:22:41.634Z,32.00
2019-03-27T22:25:10.977Z,31.40
2019-03-27T22:27:37.267Z,31.40
2019-03-27T22:30:13.606Z,31.20
2019-03-27T22:32:42.246Z,31.30
2019-03-27T22:35:08.465Z,31.30
2019-03-27T22:37:36.545Z,31.20
2019-03-27T22:40:05.905Z,31.10
2019-03-27T22:42:32.115Z,31.20
2019-03-27T22:44:59.835Z,31.20
2019-03-27T22:47:26.047Z,31.10
2019-03-27T22:49:52.172Z,31.00
2019-03-27T22:52:20.984Z,31.00
2019-03-27T22:54:47.100Z,31.20
2019-03-27T22:57:13.211Z,31.40
2019-03-27T22:59:43.663Z,31.50
2019-03-27T23:02:09.771Z,31.60
2019-03-27T23:04:35.987Z,31.60
2019-03-27T23:07:03.586Z,31.60
2019-03-27T23:09:34.590Z,31.60
2019-03-27T23:12:01.028Z,31.80
2019-03-27T23:14:27.152Z,31.90
2019-03-27T23:16:57.418Z,31.90
2019-03-27T23:19:23.635Z,32.00
2019-03-27T23:21:49.839Z,32.00
2019-03-27T23:24:16.324Z,32.00
2019-03-27T23:26:42.699Z,32.10
2019-03-27T23:29:08.831Z,32.20
2019-03-27T23:31:35.064Z,32.20
2019-03-27T23:34:01.184Z,32.20
2019-03-27T23:36:27.415Z,32.20
2019-03-27T23:38:53.532Z,32.20
2019-03-27T23:41:19.671Z,32.20
2019-03-27T23:43:45.909Z,32.30
2019-03-27T23:46:12.125Z,32.30
2019-03-27T23:48:38.478Z,32.30
2019-03-27T23:51:04.698Z,32.30
2019-03-27T23:53:30.915Z,32.30
2019-03-27T23:55:57.155Z,32.30
2019-03-27T23:58:23.268Z,32.30
